createdAt,value
2018-11-20T00:02:50.792Z,32.25
2018-11-20T00:06:34.373Z,31.47
2018-11-20T00:10:17.912Z,35.60
2018-11-20T00:14:01.504Z,35.80
2018-11-20T00:17:23.640Z,34.00
2018-11-20T00:20:45.934Z,34.30
2018-11-20T00:24:17.631Z,31.63
2018-11-20T00:28:02.010Z,31.40
2018-11-20T00:31:45.621Z,31.13
2018-11-20T00:35:29.186Z,30.23
2018-11-20T00:39:12.759Z,29.60
2018-11-20T00:42:56.306Z,34.53
2018-11-20T00:46:32.790Z,32.43
2018-11-20T00:50:16.363Z,31.20
2018-11-20T00:54:00.301Z,34.03
2018-11-20T00:57:22.822Z,31.33
2018-11-20T01:01:06.365Z,26.20
2018-11-20T01:04:49.988Z,25.68
2018-11-20T01:08:33.568Z,23.10
2018-11-20T01:11:58.080Z,28.37
2018-11-20T01:15:41.634Z,25.30
2018-11-20T01:19:21.321Z,26.17
2018-11-20T01:23:04.919Z,24.87
2018-11-20T01:26:48.458Z,27.73
2018-11-20T01:30:32.065Z,24.23
2018-11-20T01:34:13.354Z,27.73
2018-11-20T01:37:46.216Z,24.57
2018-11-20T01:41:29.845Z,20.50
2018-11-20T01:45:13.930Z,26.67
2018-11-20T01:48:45.728Z,20.37
2018-11-20T01:52:29.278Z,24.00
2018-11-20T01:56:12.866Z,22.23
2018-11-20T01:59:40.445Z,22.77
2018-11-20T02:03:15.124Z,27.33
2018-11-20T02:06:58.678Z,25.17
2018-11-20T02:10:42.469Z,23.83
2018-11-20T02:14:46.305Z,29.30
2018-11-20T02:18:32.522Z,22.60
2018-11-20T02:22:08.159Z,28.47
2018-11-20T02:25:41.149Z,25.93
2018-11-20T02:29:01.532Z,23.17
2018-11-20T02:32:45.436Z,23.20
2018-11-20T02:36:28.957Z,24.77
2018-11-20T02:40:12.850Z,22.67
2018-11-20T02:43:56.414Z,29.03
2018-11-20T02:47:23.296Z,29.00
2018-11-20T02:50:46.351Z,28.77
2018-11-20T02:54:29.913Z,26.45
2018-11-20T02:58:13.467Z,30.63
2018-11-20T03:01:47.886Z,26.83
2018-11-20T03:05:31.428Z,27.53
2018-11-20T03:09:15.010Z,30.65
2018-11-20T03:12:58.609Z,25.73
2018-11-20T03:16:42.145Z,25.83
2018-11-20T03:20:24.100Z,29.70
2018-11-20T03:24:07.633Z,27.07
2018-11-20T03:27:51.220Z,24.83
2018-11-20T03:31:34.762Z,29.37
2018-11-20T03:35:18.403Z,28.03
2018-11-20T03:39:02.262Z,30.52
2018-11-20T03:42:45.851Z,26.20
2018-11-20T03:46:28.413Z,27.73
2018-11-20T03:50:11.974Z,25.70
2018-11-20T03:53:55.522Z,22.93
2018-11-20T03:57:39.067Z,26.27
2018-11-20T04:01:22.590Z,25.57
2018-11-20T04:05:06.101Z,24.73
2018-11-20T04:08:49.635Z,30.53
2018-11-20T04:12:33.198Z,26.47
2018-11-20T04:16:16.745Z,27.50
2018-11-20T04:20:00.620Z,27.60
2018-11-20T04:23:44.176Z,24.83
2018-11-20T04:27:27.705Z,27.77
2018-11-20T04:31:49.202Z,28.63
2018-11-20T04:35:33.443Z,29.73
2018-11-20T04:39:07.409Z,21.60
2018-11-20T04:42:51.035Z,23.03
2018-11-20T04:46:34.938Z,24.90
2018-11-20T04:50:07.353Z,23.40
2018-11-20T04:53:50.865Z,21.60
2018-11-20T04:57:13.981Z,24.60
2018-11-20T05:00:57.517Z,23.13
2018-11-20T05:04:41.097Z,24.00
2018-11-20T05:08:24.746Z,24.53
2018-11-20T05:12:08.717Z,23.07
2018-11-20T05:15:52.285Z,25.60
2018-11-20T05:19:35.847Z,24.07
2018-11-20T05:23:19.682Z,21.57
2018-11-20T05:30:34.832Z,24.17
2018-11-20T05:34:01.930Z,22.70
2018-11-20T05:37:17.334Z,24.17
2018-11-20T05:40:38.665Z,20.17
2018-11-20T05:44:18.193Z,23.57
2018-11-20T05:47:48.580Z,22.53
2018-11-20T05:51:32.240Z,20.47
2018-11-20T05:55:15.897Z,20.00
2018-11-20T05:58:59.438Z,21.93
2018-11-20T06:02:43.052Z,20.90
2018-11-20T06:06:26.578Z,19.37
2018-11-20T06:10:10.132Z,20.90
2018-11-20T06:13:53.662Z,21.13
2018-11-20T06:17:37.256Z,19.73
2018-11-20T06:21:20.768Z,19.97
2018-11-20T06:25:04.291Z,19.27
2018-11-20T06:28:31.697Z,20.17
2018-11-20T06:32:15.170Z,17.37
2018-11-20T06:35:59.494Z,17.47
2018-11-20T06:39:43.049Z,17.75
2018-11-20T06:43:26.565Z,15.30
2018-11-20T06:47:03.161Z,15.17
2018-11-20T06:50:46.661Z,13.30
2018-11-20T06:54:30.199Z,15.10
2018-11-20T06:58:03.271Z,11.97
2018-11-20T07:01:40.001Z,13.07
2018-11-20T07:05:23.511Z,11.30
2018-11-20T07:09:07.071Z,11.80
2018-11-20T07:12:50.593Z,9.73
2018-11-20T07:16:54.210Z,10.87
2018-11-20T07:20:37.757Z,9.50
2018-11-20T07:24:21.351Z,9.07
2018-11-20T07:28:04.834Z,10.27
2018-11-20T07:31:48.421Z,8.40
2018-11-20T07:35:31.956Z,9.00
2018-11-20T07:39:15.772Z,12.83
2018-11-20T07:42:43.327Z,12.47
2018-11-20T07:46:06.169Z,9.30
2018-11-20T07:49:49.744Z,10.83
2018-11-20T07:53:33.313Z,12.40
2018-11-20T07:57:06.854Z,9.33
2018-11-20T08:00:50.397Z,9.67
2018-11-20T08:04:34.195Z,9.13
2018-11-20T08:08:17.814Z,11.83
2018-11-20T08:12:10.749Z,8.80
2018-11-20T08:15:54.338Z,11.23
2018-11-20T08:19:38.884Z,9.47
2018-11-20T08:23:02.880Z,10.07
2018-11-20T08:26:47.942Z,12.53
2018-11-20T08:30:31.528Z,11.20
2018-11-20T08:34:34.351Z,10.45
2018-11-20T08:38:18.190Z,9.13
2018-11-20T08:41:55.680Z,10.67
2018-11-20T08:45:26.469Z,10.07
2018-11-20T08:49:10.535Z,8.50
2018-11-20T08:52:54.456Z,10.70
2018-11-20T08:56:37.968Z,9.33
2018-11-20T09:00:21.909Z,9.37
2018-11-20T09:03:49.353Z,7.20
2018-11-20T09:07:05.515Z,9.68
2018-11-20T09:10:49.093Z,8.57
2018-11-20T09:14:32.669Z,9.10
2018-11-20T09:18:00.788Z,9.33
2018-11-20T09:21:25.333Z,10.17
2018-11-20T09:24:51.141Z,11.97
2018-11-20T09:28:18.950Z,8.93
2018-11-20T09:32:02.804Z,7.30
2018-11-20T09:35:46.959Z,7.80
2018-11-20T09:39:30.400Z,9.97
2018-11-20T09:43:13.997Z,7.73
2018-11-20T09:46:57.875Z,7.87
2018-11-20T09:50:41.373Z,8.53
2018-11-20T09:54:24.980Z,7.50
2018-11-20T09:57:41.514Z,8.43
2018-11-20T10:01:25.367Z,9.03
2018-11-20T10:05:08.918Z,9.73
2018-11-20T10:08:52.531Z,9.47
2018-11-20T10:12:36.132Z,6.65
2018-11-20T10:16:19.726Z,7.87
2018-11-20T10:19:47.375Z,6.13
2018-11-20T10:23:30.929Z,6.03
2018-11-20T10:26:52.523Z,8.60
2018-11-20T10:30:18.837Z,7.50
2018-11-20T10:34:02.922Z,7.80
2018-11-20T10:37:46.734Z,7.27
2018-11-20T10:41:30.298Z,6.53
2018-11-20T10:45:13.832Z,6.13
2018-11-20T10:48:38.767Z,6.63
2018-11-20T10:52:01.688Z,10.17
2018-11-20T10:55:25.558Z,8.67
2018-11-20T10:58:48.054Z,6.45
2018-11-20T11:02:31.610Z,6.13
2018-11-20T11:06:34.317Z,6.10
2018-11-20T11:10:17.945Z,7.83
2018-11-20T11:13:54.337Z,9.67
2018-11-20T11:17:37.886Z,6.87
2018-11-20T11:21:21.408Z,9.43
2018-11-20T11:25:05.047Z,6.30
2018-11-20T11:28:51.359Z,8.20
2018-11-20T11:32:32.901Z,6.67
2018-11-20T11:36:16.448Z,6.10
2018-11-20T11:39:59.995Z,7.07
2018-11-20T11:43:16.709Z,9.13
2018-11-20T11:46:47.129Z,6.97
2018-11-20T11:50:10.080Z,6.77
2018-11-20T11:53:53.616Z,5.87
2018-11-20T11:57:37.493Z,7.33
2018-11-20T12:01:21.203Z,6.10
2018-11-20T12:05:04.764Z,7.00
2018-11-20T12:08:48.327Z,8.53
2018-11-20T12:12:31.911Z,7.47
2018-11-20T12:16:15.625Z,8.00
2018-11-20T12:19:59.385Z,8.07
2018-11-20T12:23:42.916Z,6.50
2018-11-20T12:27:26.460Z,9.50
2018-11-20T12:31:11.827Z,7.23
2018-11-20T12:34:31.889Z,5.80
2018-11-20T12:38:02.597Z,7.67
2018-11-20T12:41:46.511Z,6.83
2018-11-20T12:45:34.168Z,7.07
2018-11-20T12:49:14.613Z,8.23
2018-11-20T12:52:41.283Z,6.42
2018-11-20T12:56:02.813Z,6.53
2018-11-20T12:59:46.384Z,7.37
2018-11-20T13:03:30.872Z,7.60
2018-11-20T13:07:14.067Z,5.47
2018-11-20T13:10:57.594Z,6.87
2018-11-20T13:14:27.908Z,6.10
2018-11-20T13:17:45.514Z,7.60
2018-11-20T13:21:21.190Z,9.20
2018-11-20T13:24:33.094Z,6.13
2018-11-20T13:27:58.177Z,6.67
2018-11-20T13:31:41.728Z,7.80
2018-11-20T13:35:25.813Z,6.20
2018-11-20T13:39:09.408Z,6.03
2018-11-20T13:42:53.844Z,6.37
2018-11-20T13:46:37.867Z,5.53
2018-11-20T13:50:21.477Z,6.77
2018-11-20T13:54:05.644Z,6.83
2018-11-20T13:57:45.894Z,7.75
2018-11-20T14:01:14.396Z,6.53
2018-11-20T14:04:58.521Z,8.27
2018-11-20T14:09:01.345Z,7.77
2018-11-20T14:12:45.324Z,8.57
2018-11-20T14:16:29.011Z,7.00
2018-11-20T14:20:31.815Z,7.10
2018-11-20T14:23:56.277Z,8.20
2018-11-20T14:27:26.579Z,8.50
2018-11-20T14:31:10.705Z,7.63
2018-11-20T14:34:54.570Z,6.43
2018-11-20T14:38:17.722Z,7.07
2018-11-20T14:41:40.857Z,7.50
2018-11-20T14:45:06.117Z,6.10
2018-11-20T14:48:26.081Z,7.93
2018-11-20T14:51:42.874Z,8.70
2018-11-20T14:55:06.717Z,6.03
2018-11-20T14:58:37.263Z,6.37
2018-11-20T15:02:21.065Z,8.53
2018-11-20T15:06:05.345Z,6.13
2018-11-20T15:09:49.203Z,6.53
2018-11-20T15:13:14.084Z,6.33
2018-11-20T15:16:57.614Z,9.67
2018-11-20T15:20:41.147Z,6.80
2018-11-20T15:24:24.888Z,6.73
2018-11-20T15:28:08.450Z,11.33
2018-11-20T15:31:52.322Z,13.03
2018-11-20T15:35:36.136Z,9.23
2018-11-20T15:39:20.062Z,14.13
2018-11-20T15:42:43.504Z,11.57
2018-11-20T15:46:16.793Z,10.77
2018-11-20T15:49:39.674Z,10.88
2018-11-20T15:53:03.278Z,10.83
2018-11-20T15:56:28.452Z,8.53
2018-11-20T15:59:59.108Z,11.67
2018-11-20T16:03:23.078Z,7.97
2018-11-20T16:07:01.550Z,8.73
2018-11-20T16:10:07.915Z,10.40
2018-11-20T16:13:51.811Z,9.13
2018-11-20T16:17:35.505Z,8.90
2018-11-20T16:21:19.330Z,9.80
2018-11-20T16:25:02.953Z,9.77
2018-11-20T16:28:46.965Z,8.17
2018-11-20T16:32:30.520Z,9.00
2018-11-20T16:36:06.125Z,8.43
2018-11-20T16:39:49.783Z,9.87
2018-11-20T16:43:33.707Z,5.85
2018-11-20T16:47:17.312Z,17.97
2018-11-20T16:51:01.014Z,22.57
2018-11-20T16:54:44.706Z,22.67
2018-11-20T16:58:08.316Z,21.73
2018-11-20T17:01:51.313Z,23.53
2018-11-20T17:05:18.803Z,25.30
2018-11-20T17:09:02.435Z,22.30
2018-11-20T17:12:44.740Z,17.17
2018-11-20T17:16:28.639Z,16.53
2018-11-20T17:20:03.066Z,15.20
2018-11-20T17:23:46.607Z,18.10
2018-11-20T17:27:30.172Z,22.57
2018-11-20T17:31:14.040Z,41.80
2018-11-20T17:34:57.630Z,58.78
2018-11-20T17:38:41.505Z,71.07
2018-11-20T17:42:04.867Z,39.60
2018-11-20T17:45:41.402Z,36.70
2018-11-20T17:49:24.955Z,25.60
2018-11-20T17:52:55.496Z,31.27
2018-11-20T17:56:26.192Z,29.13
2018-11-20T18:00:05.651Z,22.87
2018-11-20T18:03:42.386Z,21.83
2018-11-20T18:06:59.482Z,17.50
2018-11-20T18:10:42.420Z,18.43
2018-11-20T18:14:11.667Z,24.47
2018-11-20T18:17:55.500Z,22.33
2018-11-20T18:21:29.150Z,25.77
2018-11-20T18:24:51.851Z,23.17
2018-11-20T18:28:15.578Z,27.67
2018-11-20T18:31:59.873Z,22.80
2018-11-20T18:35:43.455Z,28.10
2018-11-20T18:39:29.197Z,25.27
2018-11-20T18:43:03.043Z,19.23
2018-11-20T18:46:39.372Z,14.53
2018-11-20T18:50:23.007Z,16.30
2018-11-20T18:54:06.673Z,11.43
2018-11-20T18:57:58.160Z,14.13
2018-11-20T19:01:42.486Z,19.80
2018-11-20T19:05:26.752Z,18.87
2018-11-20T19:09:10.348Z,15.03
2018-11-20T19:12:53.985Z,17.07
2018-11-20T19:16:37.884Z,16.13
2018-11-20T19:20:21.840Z,13.83
2018-11-20T19:24:05.697Z,14.97
2018-11-20T19:27:24.685Z,17.40
2018-11-20T19:30:48.196Z,20.80
2018-11-20T19:34:11.451Z,14.13
2018-11-20T19:37:40.153Z,11.83
2018-11-20T19:41:23.657Z,13.97
2018-11-20T19:44:58.654Z,14.57
2018-11-20T19:48:42.250Z,13.67
2018-11-20T19:52:08.375Z,16.13
2018-11-20T19:55:46.877Z,18.57
2018-11-20T19:59:17.159Z,19.10
2018-11-20T20:03:00.765Z,16.20
2018-11-20T20:06:44.814Z,10.37
2018-11-20T20:10:31.094Z,18.97
2018-11-20T20:14:11.742Z,33.40
2018-11-20T20:17:39.138Z,25.13
2018-11-20T20:21:16.159Z,27.23
2018-11-20T20:24:40.306Z,29.80
2018-11-20T20:28:23.837Z,47.87
2018-11-20T20:31:48.404Z,34.83
2018-11-20T20:35:12.363Z,37.93
2018-11-20T20:38:35.550Z,30.23
2018-11-20T20:42:00.632Z,36.03
2018-11-20T20:45:44.213Z,35.47
2018-11-20T20:49:27.819Z,32.40
2018-11-20T20:53:11.533Z,37.57
2018-11-20T20:56:55.131Z,35.97
2018-11-20T21:00:38.887Z,37.23
2018-11-20T21:04:22.790Z,22.80
2018-11-20T21:07:46.267Z,23.43
2018-11-20T21:11:29.796Z,20.30
2018-11-20T21:15:13.683Z,57.40
2018-11-20T21:18:57.265Z,55.17
2018-11-20T21:22:41.088Z,54.33
2018-11-20T21:26:25.532Z,54.13
2018-11-20T21:29:53.210Z,58.43
2018-11-20T21:33:37.969Z,76.03
2018-11-20T21:37:03.443Z,70.97
2018-11-20T21:40:46.993Z,66.23
2018-11-20T21:44:30.577Z,50.63
2018-11-20T21:47:59.265Z,38.70
2018-11-20T21:51:32.789Z,42.40
2018-11-20T21:54:57.692Z,38.63
2018-11-20T21:58:41.220Z,37.90
2018-11-20T22:02:25.719Z,34.50
2018-11-20T22:06:16.514Z,30.57
2018-11-20T22:10:19.019Z,29.57
2018-11-20T22:13:52.166Z,28.05
2018-11-20T22:17:35.731Z,23.37
2018-11-20T22:21:19.540Z,16.90
2018-11-20T22:25:03.392Z,16.83
2018-11-20T22:28:46.974Z,23.00
2018-11-20T22:32:11.584Z,25.12
2018-11-20T22:35:55.283Z,19.53
2018-11-20T22:39:38.854Z,14.58
2018-11-20T22:43:22.486Z,16.70
2018-11-20T22:47:09.341Z,14.03
2018-11-20T22:50:53.292Z,14.00
2018-11-20T22:54:38.032Z,12.93
2018-11-20T22:58:01.490Z,13.88
2018-11-20T23:01:45.029Z,13.07
2018-11-20T23:05:26.810Z,15.70
2018-11-20T23:08:52.044Z,15.47
2018-11-20T23:12:17.282Z,18.73
2018-11-20T23:15:43.132Z,16.10
2018-11-20T23:19:08.208Z,16.82
2018-11-20T23:22:14.094Z,20.40
2018-11-20T23:25:39.010Z,21.27
2018-11-20T23:29:03.931Z,20.03
2018-11-20T23:32:28.986Z,19.00
2018-11-20T23:36:12.891Z,19.80
2018-11-20T23:39:19.061Z,21.87
2018-11-20T23:42:44.428Z,22.48
2018-11-20T23:46:09.403Z,20.60
2018-11-20T23:49:34.726Z,21.13
2018-11-20T23:53:00.260Z,20.93
2018-11-20T23:56:43.790Z,19.00
